Raleigh, Illinois
Current Conditions -  °F | °C
As of 11:15 AM on Sunday 23 Nov 2014 (Local Time) from KHSB Reporting Station
Drizzle Drizzle  
Wind Chill: 13°   Ceiling: 1900
Heat Index: 13°   Visibility: 10mi
Dew Point: 10°   Wind: 9mph
Humidity: 80%   Direction: 140°SE
Pressure: 29.66"   Gusts: NA
Location:  37.83°N, 88.53°W
Report Text: KHSB 231715Z AUTO 14008KT 10SM -DZ OVC019 13/10 A2966 RMK AO2 T01300097
Loading
Personal Weather Stations






























Interactive Weather Map New forecast layout! Learn more

10-Day Weather Forecast

Advertisements
Track Severe Weather on mobile